createdAt,value
2019-02-09T00:00:37.303Z,5.07
2019-02-09T00:05:31.954Z,4.40
2019-02-09T00:10:26.604Z,4.67
2019-02-09T00:15:21.335Z,4.50
2019-02-09T00:20:19.731Z,5.27
2019-02-09T00:25:23.285Z,4.50
2019-02-09T00:30:20.840Z,5.20
2019-02-09T00:35:18.563Z,5.17
2019-02-09T00:40:17.622Z,4.57
2019-02-09T00:45:16.220Z,4.70
2019-02-09T00:50:14.681Z,4.13
2019-02-09T00:55:16.602Z,4.77
2019-02-09T01:00:15.756Z,4.73
2019-02-09T01:05:11.068Z,4.90
2019-02-09T01:10:10.248Z,4.97
2019-02-09T01:15:09.399Z,4.30
2019-02-09T01:20:06.071Z,3.60
2019-02-09T01:25:00.653Z,3.77
2019-02-09T01:30:02.196Z,5.00
2019-02-09T01:34:51.704Z,4.00
2019-02-09T01:39:46.310Z,6.10
2019-02-09T01:44:40.902Z,5.30
2019-02-09T01:49:35.501Z,4.83
2019-02-09T01:54:30.084Z,5.07
2019-02-09T01:59:24.742Z,7.07
2019-02-09T02:04:19.404Z,5.77
2019-02-09T02:09:13.968Z,6.40
2019-02-09T02:14:08.878Z,5.63
2019-02-09T02:19:03.545Z,5.87
2019-02-09T02:23:58.141Z,6.47
2019-02-09T02:28:52.717Z,6.77
2019-02-09T02:33:47.309Z,6.13
2019-02-09T02:38:41.898Z,5.67
2019-02-09T02:43:36.486Z,4.93
2019-02-09T02:48:31.072Z,4.67
2019-02-09T02:53:25.646Z,4.80
2019-02-09T02:58:20.231Z,4.23
2019-02-09T03:03:14.835Z,4.27
2019-02-09T03:08:09.423Z,4.53
2019-02-09T03:13:04.197Z,3.70
2019-02-09T03:17:59.518Z,3.10
2019-02-09T03:22:54.124Z,3.10
2019-02-09T03:27:48.837Z,3.13
2019-02-09T03:32:43.420Z,2.90
2019-02-09T03:37:38.145Z,3.60
2019-02-09T03:42:32.734Z,3.33
2019-02-09T03:47:27.321Z,3.20
2019-02-09T03:52:21.919Z,3.00
2019-02-09T03:57:16.644Z,3.10
2019-02-09T04:02:11.303Z,2.60
2019-02-09T04:07:06.046Z,2.50
2019-02-09T04:12:00.633Z,2.37
2019-02-09T04:16:55.232Z,2.50
2019-02-09T04:21:49.805Z,2.27
2019-02-09T04:26:44.379Z,2.20
2019-02-09T04:31:38.962Z,2.60
2019-02-09T04:36:33.560Z,2.60
2019-02-09T04:41:28.167Z,3.50
2019-02-09T04:46:22.746Z,3.50
2019-02-09T04:51:17.324Z,4.67
2019-02-09T04:56:11.915Z,4.50
2019-02-09T05:01:13.844Z,5.73
2019-02-09T05:06:02.876Z,4.03
2019-02-09T05:10:57.473Z,2.40
2019-02-09T05:15:52.053Z,2.33
2019-02-09T05:20:46.620Z,2.20
2019-02-09T05:25:41.448Z,2.13
2019-02-09T05:30:36.041Z,2.30
2019-02-09T05:35:30.613Z,2.73
2019-02-09T05:40:27.312Z,2.50
2019-02-09T05:45:28.634Z,2.07
2019-02-09T05:50:23.563Z,2.00
2019-02-09T05:55:19.835Z,1.77
2019-02-09T06:00:29.671Z,1.90
2019-02-09T06:05:24.508Z,1.73
2019-02-09T06:10:20.497Z,1.50
2019-02-09T06:15:21.989Z,1.50
2019-02-09T06:20:28.610Z,1.70
2019-02-09T06:25:23.482Z,1.63
2019-02-09T06:30:27.026Z,1.50
2019-02-09T06:35:21.728Z,1.50
2019-02-09T06:40:22.125Z,1.30
2019-02-09T06:45:25.634Z,1.23
2019-02-09T06:50:27.297Z,1.50
2019-02-09T06:55:21.927Z,1.40
2019-02-09T07:00:22.115Z,1.27
2019-02-09T07:05:20.651Z,1.23
2019-02-09T07:10:26.056Z,1.40
2019-02-09T07:15:27.741Z,1.30
2019-02-09T07:20:22.633Z,1.10
2019-02-09T07:25:17.948Z,1.20
2019-02-09T07:30:19.980Z,1.10
2019-02-09T07:35:15.667Z,1.00
2019-02-09T07:40:15.197Z,1.40
2019-02-09T07:45:20.502Z,1.37
2019-02-09T07:50:18.662Z,1.13
2019-02-09T07:55:17.681Z,1.50
2019-02-09T08:00:19.451Z,1.20
2019-02-09T08:05:15.161Z,1.30
2019-02-09T08:10:16.964Z,1.30
2019-02-09T08:15:15.967Z,1.50
2019-02-09T08:20:15.305Z,1.43
2019-02-09T08:25:17.338Z,1.57
2019-02-09T08:30:22.231Z,1.33
2019-02-09T08:35:16.870Z,1.00
2019-02-09T08:40:14.363Z,1.20
2019-02-09T08:45:16.036Z,1.10
2019-02-09T08:50:15.213Z,1.00
2019-02-09T08:55:09.926Z,1.47
2019-02-09T09:00:10.229Z,1.60
2019-02-09T09:05:09.823Z,1.50
2019-02-09T09:10:07.284Z,1.50
2019-02-09T09:15:01.873Z,1.70
2019-02-09T09:19:56.466Z,1.20
2019-02-09T09:24:51.050Z,1.50
2019-02-09T09:29:45.695Z,1.40
2019-02-09T09:34:40.295Z,1.47
2019-02-09T09:39:34.883Z,1.23
2019-02-09T09:44:29.464Z,1.40
2019-02-09T09:49:24.063Z,1.30
2019-02-09T09:54:18.694Z,1.50
2019-02-09T09:59:13.337Z,1.50
2019-02-09T10:04:07.983Z,1.30
2019-02-09T10:09:02.583Z,1.77
2019-02-09T10:13:57.185Z,1.37
2019-02-09T10:18:51.754Z,1.60
2019-02-09T10:23:46.431Z,1.60
2019-02-09T10:28:41.033Z,1.40
2019-02-09T10:33:35.617Z,1.30
2019-02-09T10:38:30.211Z,1.50
2019-02-09T10:43:24.810Z,1.30
2019-02-09T10:48:19.934Z,1.00
2019-02-09T10:53:14.693Z,1.23
2019-02-09T10:58:10.082Z,1.10
2019-02-09T11:03:06.109Z,1.30
2019-02-09T11:08:00.774Z,1.10
2019-02-09T11:12:55.436Z,0.87
2019-02-09T11:17:50.095Z,1.00
2019-02-09T11:22:44.689Z,0.90
2019-02-09T11:27:39.270Z,1.27
2019-02-09T11:32:33.863Z,0.90
2019-02-09T11:37:28.455Z,1.20
2019-02-09T11:42:23.105Z,0.90
2019-02-09T11:47:17.702Z,1.07
2019-02-09T11:52:12.306Z,1.03
2019-02-09T11:57:06.898Z,0.90
2019-02-09T12:02:01.501Z,1.23
2019-02-09T12:06:56.108Z,1.10
2019-02-09T12:11:50.692Z,1.10
2019-02-09T12:16:45.285Z,1.23
2019-02-09T12:21:40.765Z,1.13
2019-02-09T12:26:35.344Z,0.93
2019-02-09T12:31:29.930Z,1.30
2019-02-09T12:36:24.531Z,1.30
2019-02-09T12:41:19.140Z,1.60
2019-02-09T12:46:13.891Z,1.20
2019-02-09T12:51:08.460Z,1.00
2019-02-09T12:56:03.062Z,1.33
2019-02-09T13:00:57.658Z,1.40
2019-02-09T13:05:52.251Z,1.30
2019-02-09T13:10:47.011Z,1.00
2019-02-09T13:15:41.734Z,1.13
2019-02-09T13:20:36.387Z,1.17
2019-02-09T13:25:31.050Z,1.10
2019-02-09T13:30:35.903Z,1.50
2019-02-09T13:35:30.874Z,1.07
2019-02-09T13:40:28.068Z,1.17
2019-02-09T13:45:32.813Z,1.27
2019-02-09T13:50:29.802Z,1.10
2019-02-09T13:55:24.542Z,1.40
2019-02-09T14:00:28.426Z,1.20
2019-02-09T14:05:23.096Z,1.37
2019-02-09T14:10:20.879Z,1.27
2019-02-09T14:15:27.914Z,1.17
2019-02-09T14:20:22.804Z,1.30
2019-02-09T14:25:20.107Z,1.20
2019-02-09T14:30:24.116Z,1.93
2019-02-09T14:35:18.942Z,1.30
2019-02-09T14:40:26.457Z,1.20
2019-02-09T14:45:33.463Z,1.00
2019-02-09T14:50:28.275Z,1.13
2019-02-09T14:55:27.566Z,1.10
2019-02-09T15:00:35.545Z,1.13
2019-02-09T15:05:30.507Z,1.00
2019-02-09T15:10:25.233Z,1.10
2019-02-09T15:15:27.322Z,1.40
2019-02-09T15:20:41.242Z,1.37
2019-02-09T15:25:35.991Z,1.47
2019-02-09T15:30:32.490Z,1.60
2019-02-09T15:35:27.253Z,1.37
2019-02-09T15:40:23.418Z,1.40
2019-02-09T15:45:23.874Z,1.20
2019-02-09T15:50:19.459Z,1.30
2019-02-09T15:55:20.805Z,1.93
2019-02-09T16:00:22.092Z,1.40
2019-02-09T16:05:17.000Z,1.63
2019-02-09T16:10:15.915Z,1.60
2019-02-09T16:15:26.919Z,1.40
2019-02-09T16:20:24.625Z,1.40
2019-02-09T16:25:19.270Z,1.97
2019-02-09T16:30:20.949Z,1.70
2019-02-09T16:35:21.679Z,1.60
2019-02-09T16:40:20.501Z,1.30
2019-02-09T16:45:25.075Z,1.77
2019-02-09T16:50:22.175Z,1.80
2019-02-09T16:55:22.169Z,1.70
2019-02-09T17:00:41.689Z,1.70
2019-02-09T17:05:36.908Z,1.40
2019-02-09T17:10:31.566Z,1.70
2019-02-09T17:15:30.513Z,1.80
2019-02-09T17:20:25.234Z,1.70
2019-02-09T17:25:26.970Z,1.43
2019-02-09T17:30:30.986Z,1.80
2019-02-09T17:35:26.973Z,1.97
2019-02-09T17:40:43.679Z,1.83
2019-02-09T17:46:09.250Z,2.87
2019-02-09T17:51:04.021Z,3.40
2019-02-09T17:55:58.601Z,2.70
2019-02-09T18:00:54.904Z,2.70
2019-02-09T18:05:49.487Z,2.70
2019-02-09T18:10:44.070Z,2.40
2019-02-09T18:15:38.649Z,3.20
2019-02-09T18:20:33.233Z,2.80
2019-02-09T18:25:27.966Z,2.27
2019-02-09T18:30:33.035Z,1.80
2019-02-09T18:35:27.662Z,2.30
2019-02-09T18:40:27.732Z,1.90
2019-02-09T18:45:33.853Z,2.03
2019-02-09T18:50:32.817Z,1.80
2019-02-09T18:55:29.617Z,4.20
2019-02-09T19:00:37.409Z,5.20
2019-02-09T19:05:31.999Z,3.80
2019-02-09T19:10:29.654Z,2.73
2019-02-09T19:15:27.944Z,2.50
2019-02-09T19:20:29.697Z,2.47
2019-02-09T19:25:25.290Z,2.40
2019-02-09T19:30:27.756Z,2.50
2019-02-09T19:35:22.545Z,2.63
2019-02-09T19:40:20.532Z,2.50
2019-02-09T19:45:28.288Z,2.00
2019-02-09T19:50:23.014Z,2.30
2019-02-09T19:55:30.996Z,2.30
2019-02-09T20:00:32.500Z,1.97
2019-02-09T20:05:27.107Z,2.30
2019-02-09T20:10:29.487Z,2.30
2019-02-09T20:15:24.171Z,2.40
2019-02-09T20:20:20.183Z,2.43
2019-02-09T20:25:21.784Z,2.20
2019-02-09T20:30:20.642Z,2.70
2019-02-09T20:35:18.866Z,2.33
2019-02-09T20:40:23.614Z,3.30
2019-02-09T20:45:18.538Z,2.80
2019-02-09T20:50:16.615Z,5.90
2019-02-09T20:55:14.417Z,4.93
2019-02-09T21:00:30.676Z,5.90
2019-02-09T21:05:25.517Z,6.50
2019-02-09T21:10:29.922Z,6.00
2019-02-09T21:15:27.498Z,5.23
2019-02-09T21:20:22.156Z,5.10
2019-02-09T21:25:23.601Z,5.07
2019-02-09T21:30:23.491Z,6.23
2019-02-09T21:35:19.887Z,5.70
2019-02-09T21:40:21.015Z,5.40
2019-02-09T21:45:19.088Z,5.07
2019-02-09T21:50:23.881Z,5.77
2019-02-09T21:55:21.385Z,5.10
2019-02-09T22:00:29.016Z,4.60
2019-02-09T22:05:23.819Z,4.83
2019-02-09T22:10:30.212Z,5.27
2019-02-09T22:15:24.878Z,5.77
2019-02-09T22:20:22.555Z,4.50
2019-02-09T22:25:26.321Z,4.63
2019-02-09T22:30:27.611Z,4.27
2019-02-09T22:35:23.069Z,4.10
2019-02-09T22:40:21.763Z,4.50
2019-02-09T22:45:20.365Z,4.63
2019-02-09T22:50:40.139Z,4.47
2019-02-09T22:55:34.833Z,4.97
2019-02-09T23:00:41.500Z,4.37
2019-02-09T23:06:15.085Z,5.33
2019-02-09T23:11:09.746Z,5.00
2019-02-09T23:16:04.521Z,3.80
2019-02-09T23:20:59.145Z,3.40
2019-02-09T23:25:54.929Z,3.73
2019-02-09T23:30:49.954Z,5.00
2019-02-09T23:35:44.620Z,5.20
2019-02-09T23:40:39.208Z,5.00
2019-02-09T23:45:33.781Z,3.80
2019-02-09T23:50:28.363Z,4.30
2019-02-09T23:55:22.958Z,3.30
